createdAt,value
2018-03-16T00:00:10.679Z,78.00
2018-03-16T00:02:40.580Z,78.60
2018-03-16T00:05:11.308Z,78.10
2018-03-16T00:07:39.932Z,77.80
2018-03-16T00:31:51.121Z,76.30
2018-03-16T00:34:21.372Z,79.00
2018-03-16T00:36:51.709Z,79.00
2018-03-16T00:39:25.289Z,79.30
2018-03-16T00:41:59.907Z,79.50
2018-03-16T00:44:27.717Z,79.00
2018-03-16T00:46:56.031Z,79.10
2018-03-16T00:49:24.628Z,79.00
2018-03-16T00:51:53.765Z,79.60
2018-03-16T00:54:21.676Z,79.40
2018-03-16T00:56:49.606Z,79.70
2018-03-16T00:59:20.640Z,79.70
2018-03-16T01:01:48.398Z,79.60
2018-03-16T01:04:16.176Z,79.60
2018-03-16T01:06:44.113Z,79.90
2018-03-16T01:09:16.938Z,80.20
2018-03-16T01:11:46.437Z,80.20
2018-03-16T01:14:18.155Z,80.30
2018-03-16T01:16:46.777Z,80.20
2018-03-16T01:19:15.943Z,80.10
2018-03-16T01:21:46.058Z,80.30
2018-03-16T01:24:18.679Z,80.10
2018-03-16T01:26:46.387Z,80.20
2018-03-16T01:29:15.157Z,80.70
2018-03-16T01:31:44.112Z,80.30
2018-03-16T01:34:15.736Z,80.40
2018-03-16T01:36:48.049Z,80.40
2018-03-16T01:39:16.709Z,80.30
2018-03-16T01:41:52.087Z,80.30
2018-03-16T01:44:20.113Z,80.30
2018-03-16T01:46:48.743Z,80.60
2018-03-16T01:49:18.291Z,80.20
2018-03-16T01:51:47.145Z,80.00
2018-03-16T01:54:17.172Z,80.20
2018-03-16T01:56:45.304Z,79.80
2018-03-16T01:59:14.210Z,79.80
2018-03-16T02:01:42.045Z,80.10
2018-03-16T02:04:10.193Z,80.10
2018-03-16T02:06:38.196Z,80.00
2018-03-16T02:09:07.808Z,79.90
2018-03-16T02:11:35.614Z,79.80
2018-03-16T02:14:05.264Z,79.90
2018-03-16T02:16:35.832Z,79.90
2018-03-16T02:19:06.238Z,79.90
2018-03-16T02:21:34.812Z,80.40
2018-03-16T02:24:03.493Z,80.40
2018-03-16T02:26:31.166Z,80.10
2018-03-16T02:28:59.579Z,80.10
2018-03-16T02:31:28.469Z,80.10
2018-03-16T02:33:56.972Z,80.10
2018-03-16T02:36:26.025Z,79.80
2018-03-16T02:38:54.040Z,80.20
2018-03-16T02:41:21.753Z,80.20
2018-03-16T02:43:49.434Z,80.10
2018-03-16T02:46:17.762Z,80.30
2018-03-16T02:48:46.141Z,80.50
2018-03-16T02:51:14.284Z,80.50
2018-03-16T02:53:42.148Z,80.50
2018-03-16T02:56:09.915Z,80.70
2018-03-16T02:58:37.644Z,80.60
2018-03-16T03:01:05.383Z,80.60
2018-03-16T03:03:33.061Z,80.60
2018-03-16T03:06:01.019Z,80.60
2018-03-16T03:08:29.046Z,80.70
2018-03-16T03:10:56.857Z,81.10
2018-03-16T03:13:26.103Z,81.30
2018-03-16T03:15:56.042Z,81.30
2018-03-16T03:18:24.750Z,81.40
2018-03-16T03:20:52.532Z,81.40
2018-03-16T03:23:23.483Z,81.70
2018-03-16T03:25:51.871Z,81.30
2018-03-16T03:28:19.672Z,81.80
2018-03-16T03:30:49.622Z,81.40
2018-03-16T03:33:35.439Z,81.30
2018-03-16T03:36:03.150Z,81.20
2018-03-16T03:38:32.072Z,81.30
2018-03-16T03:40:59.775Z,81.20
2018-03-16T03:43:27.791Z,81.30
2018-03-16T03:45:55.749Z,81.10
2018-03-16T03:48:24.634Z,81.20
2018-03-16T03:50:52.720Z,81.30
2018-03-16T03:53:21.360Z,81.40
2018-03-16T03:55:49.463Z,80.90
2018-03-16T03:58:23.021Z,80.70
2018-03-16T04:00:52.433Z,80.70
2018-03-16T04:03:20.938Z,81.00
2018-03-16T04:05:49.033Z,81.00
2018-03-16T04:08:17.682Z,81.00
2018-03-16T04:10:46.457Z,81.00
2018-03-16T04:15:49.351Z,81.30
2018-03-16T04:18:17.261Z,81.40
2018-03-16T04:20:45.159Z,80.50
2018-03-16T04:23:12.963Z,81.00
2018-03-16T04:28:39.576Z,80.70
2018-03-16T04:31:07.253Z,80.70
2018-03-16T04:33:37.782Z,80.60
2018-03-16T04:36:05.490Z,80.60
2018-03-16T04:38:33.187Z,80.70
2018-03-16T04:41:01.224Z,80.80
2018-03-16T04:43:29.794Z,81.00
2018-03-16T04:46:00.335Z,81.10
2018-03-16T04:48:28.802Z,81.00
2018-03-16T04:50:56.582Z,81.00
2018-03-16T04:53:24.433Z,80.90
2018-03-16T04:55:52.222Z,80.90
2018-03-16T04:58:21.580Z,80.90
2018-03-16T05:00:49.395Z,81.00
2018-03-16T05:03:18.965Z,81.30
2018-03-16T05:05:46.738Z,81.00
2018-03-16T05:08:14.656Z,80.80
2018-03-16T05:10:44.206Z,81.00
2018-03-16T05:13:13.315Z,81.10
2018-03-16T05:15:41.044Z,80.90
2018-03-16T05:18:08.941Z,81.00
2018-03-16T05:20:38.549Z,80.90
2018-03-16T05:23:06.659Z,80.90
2018-03-16T05:25:36.168Z,80.80
2018-03-16T05:28:04.714Z,80.80
2018-03-16T05:30:32.750Z,81.00
2018-03-16T05:33:00.508Z,81.00
2018-03-16T05:35:29.426Z,81.10
2018-03-16T05:37:57.314Z,81.50
2018-03-16T05:40:24.938Z,81.10
2018-03-16T05:42:53.638Z,81.00
2018-03-16T05:45:21.344Z,80.90
2018-03-16T05:47:49.152Z,81.00
2018-03-16T05:50:16.836Z,80.90
2018-03-16T05:52:45.145Z,81.50
2018-03-16T05:55:31.453Z,80.60
2018-03-16T05:58:00.719Z,81.20
2018-03-16T06:00:29.512Z,80.40
2018-03-16T06:02:57.863Z,80.50
2018-03-16T06:05:27.799Z,80.60
2018-03-16T06:07:55.662Z,80.50
2018-03-16T06:10:24.437Z,80.20
2018-03-16T06:12:52.448Z,80.30
2018-03-16T06:15:22.969Z,80.60
2018-03-16T06:17:52.463Z,80.50
2018-03-16T06:20:21.744Z,80.50
2018-03-16T06:22:49.626Z,80.50
2018-03-16T06:25:17.362Z,80.60
2018-03-16T06:27:45.197Z,80.40
2018-03-16T06:30:13.775Z,80.70
2018-03-16T06:32:43.531Z,80.70
2018-03-16T06:35:13.154Z,80.60
2018-03-16T06:37:41.987Z,80.60
2018-03-16T06:40:09.795Z,81.00
2018-03-16T06:42:37.840Z,80.90
2018-03-16T06:45:07.792Z,80.70
2018-03-16T06:47:35.873Z,80.90
2018-03-16T06:50:03.800Z,81.10
2018-03-16T06:52:32.384Z,81.00
2018-03-16T06:55:01.064Z,81.00
2018-03-16T06:57:28.736Z,80.90
2018-03-16T06:59:56.436Z,80.80
2018-03-16T07:02:24.163Z,81.20
2018-03-16T07:04:52.877Z,81.40
2018-03-16T07:07:21.615Z,81.50
2018-03-16T07:09:50.151Z,81.60
2018-03-16T07:12:19.784Z,81.50
2018-03-16T07:14:47.454Z,81.40
2018-03-16T07:17:16.377Z,81.50
2018-03-16T07:19:44.713Z,81.30
2018-03-16T07:22:12.649Z,81.70
2018-03-16T07:24:40.663Z,81.30
2018-03-16T07:27:10.217Z,81.40
2018-03-16T07:29:41.002Z,81.50
2018-03-16T07:32:08.906Z,81.10
2018-03-16T07:34:36.763Z,81.40
2018-03-16T07:37:05.971Z,81.10
2018-03-16T07:39:33.789Z,81.00
2018-03-16T07:42:01.861Z,81.60
2018-03-16T07:44:29.762Z,81.70
2018-03-16T07:47:04.496Z,81.70
2018-03-16T07:49:33.538Z,81.60
2018-03-16T07:52:12.310Z,81.50
2018-03-16T07:54:46.345Z,81.40
2018-03-16T08:00:16.315Z,81.40
2018-03-16T08:02:45.150Z,81.00
2018-03-16T08:05:14.444Z,81.00
2018-03-16T08:07:51.532Z,81.10
2018-03-16T08:10:20.315Z,80.60
2018-03-16T08:12:49.317Z,81.10
2018-03-16T08:15:19.363Z,80.40
2018-03-16T08:17:50.245Z,80.00
2018-03-16T08:20:18.474Z,79.90
2018-03-16T08:22:46.352Z,80.10
2018-03-16T08:25:15.896Z,79.90
2018-03-16T08:27:47.677Z,79.60
2018-03-16T08:33:11.359Z,80.20
2018-03-16T08:35:40.694Z,79.10
2018-03-16T08:38:08.721Z,79.20
2018-03-16T08:40:36.513Z,78.80
2018-03-16T08:43:06.331Z,78.60
2018-03-16T08:45:35.082Z,78.10
2018-03-16T08:51:00.582Z,77.80
2018-03-16T08:53:29.006Z,78.30
2018-03-16T08:55:58.031Z,78.80
2018-03-16T08:58:25.991Z,78.80
2018-03-16T09:00:54.790Z,78.70
2018-03-16T09:03:25.175Z,77.60
2018-03-16T09:06:01.651Z,77.70
2018-03-16T09:08:29.432Z,77.40
2018-03-16T09:11:00.441Z,77.30
2018-03-16T09:13:34.342Z,76.60
2018-03-16T09:16:04.586Z,78.00
2018-03-16T09:18:34.990Z,79.10
2018-03-16T09:21:04.890Z,78.70
2018-03-16T09:23:37.374Z,78.60
2018-03-16T09:26:08.967Z,78.10
2018-03-16T09:28:37.294Z,79.20
2018-03-16T09:31:08.372Z,79.90
2018-03-16T09:33:37.115Z,80.10
2018-03-16T09:36:06.565Z,79.80
2018-03-16T09:38:34.450Z,80.20
2018-03-16T09:41:03.506Z,80.10
2018-03-16T09:43:31.314Z,80.40
2018-03-16T09:45:59.193Z,80.60
2018-03-16T09:48:27.949Z,80.70
2018-03-16T09:50:56.656Z,80.60
2018-03-16T09:53:33.523Z,80.50
2018-03-16T09:56:01.549Z,79.60
2018-03-16T09:58:29.557Z,80.60
2018-03-16T10:00:57.311Z,79.30
2018-03-16T10:03:26.534Z,80.30
2018-03-16T10:05:57.001Z,79.40
2018-03-16T10:08:25.664Z,79.30
2018-03-16T10:10:59.379Z,79.30
2018-03-16T10:13:36.198Z,79.30
2018-03-16T10:18:37.593Z,79.50
2018-03-16T10:21:05.822Z,79.30
2018-03-16T10:23:42.766Z,79.50
2018-03-16T10:26:11.775Z,79.50
2018-03-16T10:28:41.226Z,79.40
2018-03-16T10:31:19.717Z,79.20
2018-03-16T10:33:58.723Z,79.40
2018-03-16T10:36:27.755Z,79.70
2018-03-16T10:38:55.604Z,80.10
2018-03-16T10:41:23.764Z,80.00
2018-03-16T10:43:56.687Z,80.30
2018-03-16T10:46:24.482Z,80.60
2018-03-16T10:48:52.250Z,80.80
2018-03-16T10:51:20.094Z,80.20
2018-03-16T10:53:49.405Z,80.20
2018-03-16T10:56:17.233Z,81.00
2018-03-16T10:58:48.026Z,81.30
2018-03-16T11:01:19.745Z,81.40
2018-03-16T11:06:38.333Z,81.30
2018-03-16T11:09:09.138Z,81.30
2018-03-16T11:11:37.573Z,82.30
2018-03-16T11:14:06.038Z,82.10
2018-03-16T11:16:33.742Z,82.10
2018-03-16T11:21:37.387Z,81.20
2018-03-16T11:24:06.452Z,80.60
2018-03-16T11:26:35.261Z,80.80
2018-03-16T11:29:03.034Z,80.00
2018-03-16T11:31:31.694Z,80.00
2018-03-16T11:34:00.158Z,79.80
2018-03-16T11:36:28.766Z,78.50
2018-03-16T11:38:56.832Z,78.40
2018-03-16T11:41:24.638Z,75.60
2018-03-16T11:43:53.947Z,77.00
2018-03-16T11:46:21.945Z,77.20
2018-03-16T11:48:49.858Z,78.30
2018-03-16T11:51:25.115Z,78.00
2018-03-16T11:53:53.831Z,79.50
2018-03-16T11:56:21.601Z,80.80
2018-03-16T11:58:55.822Z,80.70
2018-03-16T12:01:23.817Z,80.80
2018-03-16T12:03:56.099Z,80.50
2018-03-16T12:09:10.921Z,80.20
2018-03-16T12:14:15.685Z,79.80
2018-03-16T12:16:47.454Z,80.20
2018-03-16T12:23:51.807Z,80.00
2018-03-16T12:26:21.016Z,80.10
2018-03-16T12:28:56.483Z,81.10
2018-03-16T12:31:25.640Z,81.00
2018-03-16T12:33:55.320Z,80.70
2018-03-16T12:39:33.209Z,81.50
2018-03-16T12:42:04.320Z,81.40
2018-03-16T12:44:41.833Z,81.80
2018-03-16T12:50:09.279Z,81.90
2018-03-16T12:52:40.979Z,81.60
2018-03-16T12:55:09.967Z,81.70
2018-03-16T12:57:38.897Z,81.50
2018-03-16T13:00:07.479Z,83.50
2018-03-16T13:02:37.564Z,82.60
2018-03-16T13:05:05.446Z,82.50
2018-03-16T13:07:39.801Z,83.50
2018-03-16T13:10:09.858Z,84.40
2018-03-16T13:12:39.833Z,83.60
2018-03-16T13:15:09.498Z,84.40
2018-03-16T13:17:37.249Z,84.80
2018-03-16T13:20:05.117Z,85.70
2018-03-16T13:22:34.614Z,85.50
2018-03-16T13:25:03.402Z,85.20
2018-03-16T13:27:32.067Z,85.00
2018-03-16T13:30:01.302Z,83.70
2018-03-16T13:32:30.447Z,84.20
2018-03-16T13:34:58.201Z,84.10
2018-03-16T13:37:27.866Z,83.70
2018-03-16T13:39:55.823Z,83.70
2018-03-16T13:42:24.350Z,83.50
2018-03-16T13:44:57.370Z,83.60
2018-03-16T13:47:27.169Z,83.50
2018-03-16T13:49:54.954Z,83.40
2018-03-16T13:52:25.361Z,82.20
2018-03-16T13:54:53.452Z,82.60
2018-03-16T13:57:22.457Z,82.90
2018-03-16T13:59:50.185Z,83.40
2018-03-16T14:02:22.871Z,84.00
2018-03-16T14:04:52.185Z,84.30
2018-03-16T14:07:29.984Z,83.90
2018-03-16T14:09:57.923Z,84.00
2018-03-16T14:12:26.384Z,84.30
2018-03-16T14:14:54.816Z,84.50
2018-03-16T14:17:27.814Z,84.90
2018-03-16T14:19:57.062Z,85.10
2018-03-16T14:22:25.662Z,85.50
2018-03-16T14:24:53.354Z,85.60
2018-03-16T14:27:21.190Z,85.40
2018-03-16T14:29:50.316Z,84.80
2018-03-16T14:32:19.116Z,83.60
2018-03-16T14:34:51.447Z,83.70
2018-03-16T14:37:19.340Z,82.70
2018-03-16T14:39:48.288Z,81.90
2018-03-16T14:54:37.521Z,82.50
2018-03-16T14:57:15.420Z,81.60
2018-03-16T14:59:46.609Z,81.80
2018-03-16T15:02:21.768Z,81.80
2018-03-16T15:04:52.608Z,80.60
2018-03-16T15:07:20.633Z,82.10
2018-03-16T15:09:50.582Z,82.60
2018-03-16T15:12:21.393Z,82.20
2018-03-16T15:14:50.416Z,81.60
2018-03-16T15:17:19.245Z,81.80
2018-03-16T15:24:58.401Z,81.70
2018-03-16T15:30:42.443Z,81.20
2018-03-16T15:33:12.345Z,80.80
2018-03-16T15:35:40.181Z,80.80
2018-03-16T15:38:07.911Z,81.20
2018-03-16T15:40:38.326Z,81.80
2018-03-16T15:43:09.786Z,82.10
2018-03-16T15:46:08.272Z,82.20
2018-03-16T15:49:16.272Z,83.00
2018-03-16T15:51:49.769Z,84.20
2018-03-16T15:54:17.752Z,84.50
2018-03-16T15:56:47.484Z,84.60
2018-03-16T15:59:15.337Z,84.30
2018-03-16T16:01:43.285Z,84.40
2018-03-16T16:04:14.553Z,84.20
2018-03-16T16:06:42.699Z,84.00
2018-03-16T16:09:11.300Z,84.00
2018-03-16T16:11:39.916Z,84.00
2018-03-16T16:14:09.991Z,84.00
2018-03-16T16:16:38.880Z,84.10
2018-03-16T16:19:08.144Z,84.10
2018-03-16T16:21:42.189Z,83.90
2018-03-16T16:24:12.531Z,83.70
2018-03-16T16:26:40.663Z,83.30
2018-03-16T16:34:40.998Z,83.40
2018-03-16T16:37:09.902Z,84.80
2018-03-16T16:39:42.205Z,85.10
2018-03-16T16:42:19.121Z,85.30
2018-03-16T16:44:48.669Z,85.50
2018-03-16T16:47:21.467Z,85.70
2018-03-16T16:49:49.415Z,85.90
2018-03-16T16:52:18.572Z,85.70
2018-03-16T16:54:51.375Z,85.70
2018-03-16T16:57:23.411Z,85.60
2018-03-16T16:59:52.278Z,85.60
2018-03-16T17:02:44.726Z,86.10
2018-03-16T17:05:15.398Z,86.20
2018-03-16T17:07:45.055Z,86.10
2018-03-16T17:10:13.711Z,85.90
2018-03-16T17:12:41.485Z,85.30
2018-03-16T17:15:10.034Z,84.90
2018-03-16T17:17:42.884Z,85.20
2018-03-16T17:20:10.789Z,85.40
2018-03-16T17:22:40.971Z,85.80
2018-03-16T17:25:09.513Z,85.70
2018-03-16T17:27:43.761Z,85.80
2018-03-16T17:30:12.246Z,86.20
2018-03-16T17:32:40.081Z,86.20
2018-03-16T17:35:09.108Z,86.40
2018-03-16T17:37:38.318Z,86.50
2018-03-16T17:40:13.211Z,86.60
2018-03-16T17:42:45.358Z,86.80
2018-03-16T17:45:13.277Z,86.60
2018-03-16T17:47:43.214Z,86.60
2018-03-16T17:50:12.414Z,85.40
2018-03-16T17:52:42.410Z,86.00
2018-03-16T17:55:11.084Z,86.50
2018-03-16T17:57:40.984Z,86.60
2018-03-16T18:00:09.880Z,86.60
2018-03-16T18:02:37.608Z,86.40
2018-03-16T18:05:05.362Z,86.30
2018-03-16T18:07:37.650Z,85.90
2018-03-16T18:10:06.638Z,85.50
2018-03-16T18:12:34.562Z,85.40
2018-03-16T18:15:02.587Z,85.20
2018-03-16T18:17:31.851Z,85.30
2018-03-16T18:20:09.409Z,85.50
2018-03-16T18:22:38.364Z,85.80
2018-03-16T18:25:07.884Z,85.20
2018-03-16T18:27:35.790Z,85.30
2018-03-16T18:30:03.705Z,85.20
2018-03-16T18:32:32.686Z,85.00
2018-03-16T18:35:04.879Z,84.80
2018-03-16T18:37:33.600Z,84.40
2018-03-16T18:40:07.188Z,84.60
2018-03-16T18:42:36.447Z,84.70
2018-03-16T18:45:05.623Z,85.10
2018-03-16T18:47:33.564Z,85.30
2018-03-16T18:50:02.360Z,86.00
2018-03-16T18:52:30.287Z,85.90
2018-03-16T18:54:58.469Z,86.10
2018-03-16T18:57:27.153Z,85.60
2018-03-16T18:59:56.552Z,86.20
2018-03-16T19:02:28.031Z,86.30
2018-03-16T19:04:56.308Z,86.30
2018-03-16T19:07:25.321Z,86.30
2018-03-16T19:09:59.715Z,85.80
2018-03-16T19:12:29.633Z,86.00
2018-03-16T19:14:58.517Z,86.00
2018-03-16T19:33:38.359Z,86.20
2018-03-16T19:36:18.284Z,86.40
2018-03-16T19:38:46.407Z,86.80
2018-03-16T19:41:14.552Z,87.00
2018-03-16T19:43:45.737Z,86.80
2018-03-16T19:46:17.387Z,86.70
2018-03-16T19:48:45.273Z,86.70
2018-03-16T19:51:25.768Z,86.60
2018-03-16T19:53:54.967Z,86.80
2018-03-16T19:56:42.102Z,86.90
2018-03-16T19:59:19.820Z,86.70
2018-03-16T20:01:52.391Z,86.70
2018-03-16T20:04:31.691Z,86.50
2018-03-16T20:09:37.066Z,86.40
2018-03-16T20:12:08.203Z,86.20
2018-03-16T20:14:37.118Z,86.30
2018-03-16T20:17:09.077Z,86.50
2018-03-16T20:19:37.233Z,86.60
2018-03-16T20:22:07.082Z,86.60
2018-03-16T20:24:37.587Z,86.80
2018-03-16T20:27:07.323Z,86.90
2018-03-16T20:29:42.513Z,86.80
2018-03-16T20:32:12.073Z,86.50
2018-03-16T20:34:45.229Z,86.60
2018-03-16T20:37:14.195Z,86.90
2018-03-16T20:39:42.879Z,86.90
2018-03-16T20:42:10.726Z,87.40
2018-03-16T20:44:40.443Z,87.30
2018-03-16T20:47:14.825Z,87.30
2018-03-16T20:49:43.400Z,87.30
2018-03-16T20:52:11.533Z,87.50
2018-03-16T20:54:39.553Z,87.40
2018-03-16T20:57:07.523Z,87.40
2018-03-16T20:59:44.897Z,87.10
2018-03-16T21:04:48.550Z,87.50
2018-03-16T21:07:25.101Z,86.80
2018-03-16T21:09:55.374Z,86.50
2018-03-16T21:12:29.903Z,85.60
2018-03-16T21:15:11.232Z,85.60
2018-03-16T21:17:46.783Z,85.50
2018-03-16T21:20:14.499Z,85.90
2018-03-16T21:22:43.003Z,85.50
2018-03-16T21:25:12.670Z,85.50
2018-03-16T21:27:40.679Z,85.60
2018-03-16T21:30:10.715Z,85.60
2018-03-16T21:32:39.297Z,85.50
2018-03-16T21:35:09.077Z,85.30
2018-03-16T21:37:39.454Z,84.80
2018-03-16T21:40:15.145Z,85.10
2018-03-16T21:42:45.358Z,83.30
2018-03-16T21:45:13.139Z,84.10
2018-03-16T21:47:50.975Z,84.00
2018-03-16T21:50:25.001Z,83.90
2018-03-16T21:52:53.754Z,83.90
2018-03-16T21:55:22.000Z,83.90
2018-03-16T21:57:54.221Z,83.70
2018-03-16T22:00:26.292Z,83.30
2018-03-16T22:02:55.371Z,83.70
2018-03-16T22:05:41.613Z,83.00
2018-03-16T22:08:13.448Z,83.10
2018-03-16T22:10:44.738Z,83.50
2018-03-16T22:13:12.562Z,83.50
2018-03-16T22:15:44.812Z,83.80
2018-03-16T22:18:13.991Z,83.90
2018-03-16T22:20:45.154Z,83.60
2018-03-16T22:23:12.988Z,83.40
2018-03-16T22:25:41.550Z,83.80
2018-03-16T22:28:12.784Z,83.70
2018-03-16T22:30:40.611Z,83.70
2018-03-16T22:33:08.347Z,84.00
2018-03-16T22:35:36.206Z,83.70
2018-03-16T22:38:05.733Z,83.70
2018-03-16T22:40:40.989Z,83.70
2018-03-16T22:43:08.850Z,84.00
2018-03-16T22:45:40.464Z,84.30
2018-03-16T22:48:11.838Z,84.10
2018-03-16T22:50:40.390Z,84.50
2018-03-16T22:53:11.398Z,83.70
2018-03-16T22:55:39.438Z,83.70
2018-03-16T22:58:07.255Z,83.90
2018-03-16T23:00:35.052Z,83.90
2018-03-16T23:03:03.929Z,84.00
2018-03-16T23:05:34.690Z,84.10
2018-03-16T23:08:02.559Z,84.10
2018-03-16T23:10:33.571Z,84.40
2018-03-16T23:13:04.599Z,84.00
2018-03-16T23:15:33.591Z,83.90
2018-03-16T23:18:05.156Z,83.90
2018-03-16T23:20:43.400Z,83.80
2018-03-16T23:23:11.789Z,83.60
2018-03-16T23:25:44.303Z,83.80
2018-03-16T23:28:17.334Z,82.80
2018-03-16T23:30:52.242Z,83.10
2018-03-16T23:33:21.066Z,83.10
2018-03-16T23:35:49.877Z,82.80
2018-03-16T23:38:17.804Z,83.00
2018-03-16T23:40:45.728Z,82.70
2018-03-16T23:43:14.108Z,82.50
2018-03-16T23:45:43.280Z,82.60
2018-03-16T23:48:11.089Z,82.60
2018-03-16T23:50:41.414Z,82.40
2018-03-16T23:53:10.232Z,82.40
2018-03-16T23:55:55.937Z,82.20
2018-03-16T23:58:27.975Z,81.90
